aviador You're here:

MMHO Decoded Metar

HERMOSILLO in MEXICO
Report Time2018-05-27 00:40:00
UTC Time2018-05-27 01:06:03
Flight Rules vfr VFR
Wind240° at 12 kt
W.Decomp.*RWY 23: 12.0 kt HW 0 kt LCW
RWY 29: 6.0 kt HW 10.4 kt LCW
W.Rank240° ranks 5
Current wind is above 240° avg. (6.7)
Visibility9999 m
Phenomena:N/A
Clouds:Few 100 Hf
Scattered 200 Hf
Expected CloudBase > 15,600 ft AGL from Temp-Dew spread
CeilingNone
Temp36°C (ISA +22)
Dew Point-3°C (8% RH)
Heat Index33.2°C
AAT29.2°C
QNH1008 hPa
Density Alt3,356 ft
Elevation604 ft
Report Wrong Elevation
Raw Report
METAR MMHO 270040Z 24012KT 10SM FEW100 SCT200 36/M03 A2976 RMK 8/038
HZY=

Extra information for MMHO:More info

Metar Taf Metar & Taf Last 4 Metars F.Rules Stats Wind Profile Meteogram Temp Stats Airport Information Weather charts Add Link Nearby VenuesMetar ALERT Operation Metar Decoded Social comments